Terminal Aerodrome Forecast
Issued by NWS

Home | Current Version | Previous Version | Graphics & Text | Print | Product List | Glossary On
Versions: 1 2 3 4 5 6 7 8 9 10 11 12 13 14 15 16 17 18 19
000
FTUS43 KMPX 270500
TAFAXN
TAF
KAXN 270533Z 2706/2806 36010KT P6SM OVC015
     FM271500 32007KT P6SM SCT015 BKN050
     FM271800 27008KT P6SM SCT050
     FM280000 25006KT P6SM SCT040 BKN250=

USA.gov is the U.S. government's official web portal to all federal, state and local government web resources and services.